Mackay, Texas
Current Conditions -  °F | °C
As of 10:15 PM on Monday 22 Dec 2014 (Local Time) from KARM Reporting Station
Moderate Fog Moderate Fog  
Wind Chill: 55°   Ceiling: 200
Heat Index: 55°   Visibility: 0.25mi
Dew Point: 54°   Wind: 5mph
Humidity: 98%   Direction: 150°SSE
Pressure: 29.68"   Gusts: NA
Location:  29.2926°N, 96.034°W
Report Text: KARM 230415Z AUTO 15004KT 1/4SM FG VV002 13/12 A2968 RMK AO2 T01260123
Loading
Personal Weather Stations






























Interactive Weather Map New forecast layout! Learn more

10-Day Weather Forecast

Advertisements
Track Severe Weather on mobile